sensor_id;sensor_type;location;lat;lon;timestamp;P1;durP1;ratioP1;P2;durP2;ratioP2
24961;SDS011;12992;50.884;13.668;2022-08-20T00:00:24;61.13;;;33.17;;
24961;SDS011;12992;50.884;13.668;2022-08-20T00:02:53;57.28;;;31.85;;
24961;SDS011;12992;50.884;13.668;2022-08-20T00:05:41;62.85;;;33.63;;
24961;SDS011;12992;50.884;13.668;2022-08-20T00:08:09;57.58;;;32.05;;
24961;SDS011;12992;50.884;13.668;2022-08-20T00:10:36;57.83;;;32.10;;
24961;SDS011;12992;50.884;13.668;2022-08-20T00:13:05;61.58;;;33.45;;
24961;SDS011;12992;50.884;13.668;2022-08-20T00:15:33;60.92;;;33.08;;
24961;SDS011;12992;50.884;13.668;2022-08-20T00:18:00;60.85;;;32.55;;
24961;SDS011;12992;50.884;13.668;2022-08-20T00:20:27;63.85;;;33.00;;
24961;SDS011;12992;50.884;13.668;2022-08-20T00:22:55;64.38;;;32.17;;
24961;SDS011;12992;50.884;13.668;2022-08-20T00:25:21;66.20;;;33.08;;
24961;SDS011;12992;50.884;13.668;2022-08-20T00:27:48;63.67;;;33.85;;
24961;SDS011;12992;50.884;13.668;2022-08-20T00:30:14;60.67;;;32.60;;
24961;SDS011;12992;50.884;13.668;2022-08-20T00:32:44;62.33;;;33.22;;
24961;SDS011;12992;50.884;13.668;2022-08-20T00:35:14;62.45;;;32.72;;
24961;SDS011;12992;50.884;13.668;2022-08-20T00:37:42;59.05;;;31.50;;
24961;SDS011;12992;50.884;13.668;2022-08-20T00:40:08;62.22;;;33.28;;
24961;SDS011;12992;50.884;13.668;2022-08-20T00:42:43;65.07;;;33.78;;
24961;SDS011;12992;50.884;13.668;2022-08-20T00:45:11;64.90;;;32.92;;
24961;SDS011;12992;50.884;13.668;2022-08-20T00:47:37;70.10;;;35.13;;
24961;SDS011;12992;50.884;13.668;2022-08-20T00:50:08;62.53;;;33.08;;
24961;SDS011;12992;50.884;13.668;2022-08-20T00:52:36;71.82;;;35.65;;
24961;SDS011;12992;50.884;13.668;2022-08-20T00:55:06;66.35;;;33.10;;
24961;SDS011;12992;50.884;13.668;2022-08-20T00:57:37;73.25;;;34.63;;
24961;SDS011;12992;50.884;13.668;2022-08-20T01:00:14;64.70;;;33.53;;
24961;SDS011;12992;50.884;13.668;2022-08-20T01:02:43;61.08;;;31.73;;
24961;SDS011;12992;50.884;13.668;2022-08-20T01:05:09;63.55;;;33.45;;
24961;SDS011;12992;50.884;13.668;2022-08-20T01:07:35;59.97;;;31.85;;
24961;SDS011;12992;50.884;13.668;2022-08-20T01:10:10;64.50;;;33.08;;
24961;SDS011;12992;50.884;13.668;2022-08-20T01:12:41;67.80;;;33.80;;
24961;SDS011;12992;50.884;13.668;2022-08-20T01:15:10;64.63;;;33.53;;
24961;SDS011;12992;50.884;13.668;2022-08-20T01:17:40;59.97;;;31.88;;
24961;SDS011;12992;50.884;13.668;2022-08-20T01:20:18;61.72;;;32.53;;
24961;SDS011;12992;50.884;13.668;2022-08-20T01:26:02;62.10;;;32.92;;
24961;SDS011;12992;50.884;13.668;2022-08-20T01:28:43;63.72;;;34.20;;
24961;SDS011;12992;50.884;13.668;2022-08-20T01:33:45;61.03;;;32.38;;
24961;SDS011;12992;50.884;13.668;2022-08-20T01:36:12;67.10;;;34.05;;
24961;SDS011;12992;50.884;13.668;2022-08-20T01:38:39;65.32;;;33.72;;
24961;SDS011;12992;50.884;13.668;2022-08-20T01:41:09;66.93;;;34.35;;
24961;SDS011;12992;50.884;13.668;2022-08-20T01:43:44;69.13;;;35.63;;
24961;SDS011;12992;50.884;13.668;2022-08-20T01:46:10;64.43;;;34.83;;
24961;SDS011;12992;50.884;13.668;2022-08-20T01:48:36;74.60;;;37.50;;
24961;SDS011;12992;50.884;13.668;2022-08-20T01:51:04;71.38;;;35.22;;
24961;SDS011;12992;50.884;13.668;2022-08-20T01:53:38;81.22;;;38.10;;
24961;SDS011;12992;50.884;13.668;2022-08-20T01:56:07;75.25;;;37.28;;
24961;SDS011;12992;50.884;13.668;2022-08-20T01:58:35;79.85;;;36.67;;
24961;SDS011;12992;50.884;13.668;2022-08-20T02:01:04;74.40;;;36.90;;
24961;SDS011;12992;50.884;13.668;2022-08-20T02:03:30;78.40;;;37.45;;
24961;SDS011;12992;50.884;13.668;2022-08-20T02:05:58;70.28;;;36.25;;
24961;SDS011;12992;50.884;13.668;2022-08-20T02:08:24;76.75;;;37.70;;
24961;SDS011;12992;50.884;13.668;2022-08-20T02:10:49;83.72;;;38.63;;
24961;SDS011;12992;50.884;13.668;2022-08-20T02:13:15;79.22;;;37.50;;
24961;SDS011;12992;50.884;13.668;2022-08-20T02:15:41;77.60;;;37.92;;
24961;SDS011;12992;50.884;13.668;2022-08-20T02:18:07;78.88;;;38.75;;
24961;SDS011;12992;50.884;13.668;2022-08-20T02:20:36;78.57;;;37.63;;
24961;SDS011;12992;50.884;13.668;2022-08-20T02:23:03;79.22;;;39.83;;
24961;SDS011;12992;50.884;13.668;2022-08-20T02:25:31;84.72;;;39.60;;
24961;SDS011;12992;50.884;13.668;2022-08-20T02:27:59;80.05;;;39.58;;
24961;SDS011;12992;50.884;13.668;2022-08-20T02:30:28;88.07;;;40.70;;
24961;SDS011;12992;50.884;13.668;2022-08-20T02:32:57;81.85;;;40.90;;
24961;SDS011;12992;50.884;13.668;2022-08-20T02:35:24;89.95;;;40.42;;
24961;SDS011;12992;50.884;13.668;2022-08-20T02:37:49;94.65;;;41.60;;
24961;SDS011;12992;50.884;13.668;2022-08-20T02:40:16;93.18;;;43.20;;
24961;SDS011;12992;50.884;13.668;2022-08-20T02:42:43;90.07;;;41.15;;
24961;SDS011;12992;50.884;13.668;2022-08-20T02:45:09;95.38;;;42.38;;
24961;SDS011;12992;50.884;13.668;2022-08-20T02:47:37;98.18;;;42.42;;
24961;SDS011;12992;50.884;13.668;2022-08-20T02:50:03;104.38;;;45.30;;
24961;SDS011;12992;50.884;13.668;2022-08-20T02:52:30;108.13;;;44.55;;
24961;SDS011;12992;50.884;13.668;2022-08-20T02:54:56;113.22;;;45.10;;
24961;SDS011;12992;50.884;13.668;2022-08-20T02:57:21;117.53;;;47.05;;
24961;SDS011;12992;50.884;13.668;2022-08-20T02:59:47;119.10;;;47.30;;
24961;SDS011;12992;50.884;13.668;2022-08-20T03:02:13;123.47;;;47.45;;
24961;SDS011;12992;50.884;13.668;2022-08-20T03:04:39;117.97;;;45.47;;
24961;SDS011;12992;50.884;13.668;2022-08-20T03:07:05;125.75;;;47.15;;
24961;SDS011;12992;50.884;13.668;2022-08-20T03:09:31;126.95;;;47.78;;
24961;SDS011;12992;50.884;13.668;2022-08-20T03:11:56;126.65;;;48.92;;
24961;SDS011;12992;50.884;13.668;2022-08-20T03:14:21;124.97;;;50.25;;
24961;SDS011;12992;50.884;13.668;2022-08-20T03:16:47;131.20;;;47.00;;
24961;SDS011;12992;50.884;13.668;2022-08-20T03:19:13;122.80;;;45.90;;
24961;SDS011;12992;50.884;13.668;2022-08-20T03:21:38;114.10;;;46.75;;
24961;SDS011;12992;50.884;13.668;2022-08-20T03:24:04;124.43;;;48.55;;
24961;SDS011;12992;50.884;13.668;2022-08-20T03:26:29;120.63;;;48.35;;
24961;SDS011;12992;50.884;13.668;2022-08-20T03:28:54;129.25;;;47.05;;
24961;SDS011;12992;50.884;13.668;2022-08-20T03:31:20;120.82;;;46.45;;
24961;SDS011;12992;50.884;13.668;2022-08-20T03:33:45;121.00;;;46.80;;
24961;SDS011;12992;50.884;13.668;2022-08-20T03:36:10;121.43;;;45.90;;
24961;SDS011;12992;50.884;13.668;2022-08-20T03:38:36;109.70;;;43.40;;
24961;SDS011;12992;50.884;13.668;2022-08-20T03:41:01;108.60;;;45.42;;
24961;SDS011;12992;50.884;13.668;2022-08-20T03:43:27;119.22;;;45.10;;
24961;SDS011;12992;50.884;13.668;2022-08-20T03:45:53;110.13;;;42.90;;
24961;SDS011;12992;50.884;13.668;2022-08-20T03:48:19;110.10;;;42.70;;
24961;SDS011;12992;50.884;13.668;2022-08-20T03:50:45;107.25;;;42.10;;
24961;SDS011;12992;50.884;13.668;2022-08-20T03:53:12;99.82;;;39.88;;
24961;SDS011;12992;50.884;13.668;2022-08-20T03:55:39;102.80;;;40.65;;
24961;SDS011;12992;50.884;13.668;2022-08-20T03:58:07;103.95;;;39.03;;
24961;SDS011;12992;50.884;13.668;2022-08-20T04:00:39;87.45;;;37.05;;
24961;SDS011;12992;50.884;13.668;2022-08-20T04:03:11;81.57;;;35.08;;
24961;SDS011;12992;50.884;13.668;2022-08-20T04:05:37;82.78;;;34.35;;
24961;SDS011;12992;50.884;13.668;2022-08-20T04:08:05;64.38;;;30.48;;
24961;SDS011;12992;50.884;13.668;2022-08-20T04:10:32;67.90;;;29.58;;
24961;SDS011;12992;50.884;13.668;2022-08-20T04:12:58;68.70;;;28.77;;
24961;SDS011;12992;50.884;13.668;2022-08-20T04:15:23;62.35;;;28.10;;
24961;SDS011;12992;50.884;13.668;2022-08-20T04:17:49;58.65;;;27.70;;
24961;SDS011;12992;50.884;13.668;2022-08-20T04:20:16;57.75;;;25.92;;
24961;SDS011;12992;50.884;13.668;2022-08-20T04:22:46;53.53;;;25.75;;
24961;SDS011;12992;50.884;13.668;2022-08-20T04:25:12;52.05;;;23.60;;
24961;SDS011;12992;50.884;13.668;2022-08-20T04:27:38;41.15;;;21.92;;
24961;SDS011;12992;50.884;13.668;2022-08-20T04:30:05;44.03;;;22.38;;
24961;SDS011;12992;50.884;13.668;2022-08-20T04:32:32;37.75;;;21.58;;
24961;SDS011;12992;50.884;13.668;2022-08-20T04:35:01;35.13;;;18.33;;
24961;SDS011;12992;50.884;13.668;2022-08-20T04:37:31;32.25;;;19.13;;
24961;SDS011;12992;50.884;13.668;2022-08-20T04:39:57;32.38;;;17.23;;
24961;SDS011;12992;50.884;13.668;2022-08-20T04:42:44;26.90;;;16.05;;
24961;SDS011;12992;50.884;13.668;2022-08-20T04:45:10;22.17;;;14.80;;
24961;SDS011;12992;50.884;13.668;2022-08-20T04:47:35;22.88;;;13.43;;
24961;SDS011;12992;50.884;13.668;2022-08-20T04:50:01;19.45;;;11.88;;
24961;SDS011;12992;50.884;13.668;2022-08-20T04:52:26;15.18;;;10.63;;
24961;SDS011;12992;50.884;13.668;2022-08-20T04:54:52;17.90;;;10.13;;
24961;SDS011;12992;50.884;13.668;2022-08-20T04:57:20;13.68;;;9.20;;
24961;SDS011;12992;50.884;13.668;2022-08-20T04:59:48;14.45;;;8.50;;
24961;SDS011;12992;50.884;13.668;2022-08-20T05:02:14;14.40;;;9.35;;
24961;SDS011;12992;50.884;13.668;2022-08-20T05:04:42;11.77;;;8.05;;
24961;SDS011;12992;50.884;13.668;2022-08-20T05:07:09;15.40;;;9.25;;
24961;SDS011;12992;50.884;13.668;2022-08-20T05:09:35;11.60;;;8.43;;
24961;SDS011;12992;50.884;13.668;2022-08-20T05:12:00;14.27;;;8.63;;
24961;SDS011;12992;50.884;13.668;2022-08-20T05:14:25;11.32;;;7.85;;
24961;SDS011;12992;50.884;13.668;2022-08-20T05:16:53;7.80;;;6.00;;
24961;SDS011;12992;50.884;13.668;2022-08-20T05:19:21;7.15;;;5.97;;
24961;SDS011;12992;50.884;13.668;2022-08-20T05:21:46;7.38;;;5.72;;
24961;SDS011;12992;50.884;13.668;2022-08-20T05:24:12;8.00;;;6.28;;
24961;SDS011;12992;50.884;13.668;2022-08-20T05:26:37;9.15;;;6.78;;
24961;SDS011;12992;50.884;13.668;2022-08-20T05:29:03;9.32;;;6.60;;
24961;SDS011;12992;50.884;13.668;2022-08-20T05:31:30;10.48;;;7.60;;
24961;SDS011;12992;50.884;13.668;2022-08-20T05:33:57;11.77;;;7.28;;
24961;SDS011;12992;50.884;13.668;2022-08-20T05:36:22;9.85;;;7.50;;
24961;SDS011;12992;50.884;13.668;2022-08-20T05:38:47;11.07;;;7.75;;
24961;SDS011;12992;50.884;13.668;2022-08-20T05:41:13;14.95;;;8.40;;
24961;SDS011;12992;50.884;13.668;2022-08-20T05:43:38;12.43;;;8.32;;
24961;SDS011;12992;50.884;13.668;2022-08-20T05:46:04;10.10;;;8.13;;
24961;SDS011;12992;50.884;13.668;2022-08-20T05:48:29;13.82;;;9.27;;
24961;SDS011;12992;50.884;13.668;2022-08-20T05:50:55;10.18;;;7.00;;
24961;SDS011;12992;50.884;13.668;2022-08-20T05:53:21;10.00;;;6.65;;
24961;SDS011;12992;50.884;13.668;2022-08-20T05:55:48;11.00;;;7.22;;
24961;SDS011;12992;50.884;13.668;2022-08-20T05:58:15;9.88;;;7.43;;
24961;SDS011;12992;50.884;13.668;2022-08-20T06:00:43;13.18;;;7.85;;
24961;SDS011;12992;50.884;13.668;2022-08-20T06:03:09;10.02;;;7.53;;
24961;SDS011;12992;50.884;13.668;2022-08-20T06:05:53;14.18;;;9.05;;
24961;SDS011;12992;50.884;13.668;2022-08-20T06:08:18;14.20;;;9.63;;
24961;SDS011;12992;50.884;13.668;2022-08-20T06:10:44;17.15;;;10.82;;
24961;SDS011;12992;50.884;13.668;2022-08-20T06:13:10;16.13;;;9.93;;
24961;SDS011;12992;50.884;13.668;2022-08-20T06:15:36;20.08;;;10.82;;
24961;SDS011;12992;50.884;13.668;2022-08-20T06:18:04;14.98;;;9.85;;
24961;SDS011;12992;50.884;13.668;2022-08-20T06:20:32;15.43;;;10.77;;
24961;SDS011;12992;50.884;13.668;2022-08-20T06:22:57;20.67;;;12.77;;
24961;SDS011;12992;50.884;13.668;2022-08-20T06:25:23;21.08;;;13.20;;
24961;SDS011;12992;50.884;13.668;2022-08-20T06:27:48;22.40;;;14.82;;
24961;SDS011;12992;50.884;13.668;2022-08-20T06:30:14;26.63;;;15.57;;
24961;SDS011;12992;50.884;13.668;2022-08-20T06:32:39;28.65;;;16.42;;
24961;SDS011;12992;50.884;13.668;2022-08-20T06:35:07;33.08;;;18.98;;
24961;SDS011;12992;50.884;13.668;2022-08-20T06:37:34;32.80;;;19.17;;
24961;SDS011;12992;50.884;13.668;2022-08-20T06:40:03;30.17;;;18.80;;
24961;SDS011;12992;50.884;13.668;2022-08-20T06:42:32;34.33;;;20.13;;
24961;SDS011;12992;50.884;13.668;2022-08-20T06:44:58;37.22;;;19.88;;
24961;SDS011;12992;50.884;13.668;2022-08-20T06:47:29;35.03;;;19.33;;
24961;SDS011;12992;50.884;13.668;2022-08-20T06:49:55;31.50;;;18.85;;
24961;SDS011;12992;50.884;13.668;2022-08-20T06:52:21;31.17;;;18.27;;
24961;SDS011;12992;50.884;13.668;2022-08-20T06:54:46;29.27;;;18.45;;
24961;SDS011;12992;50.884;13.668;2022-08-20T06:57:12;29.40;;;18.10;;
24961;SDS011;12992;50.884;13.668;2022-08-20T06:59:37;29.95;;;18.23;;
24961;SDS011;12992;50.884;13.668;2022-08-20T07:02:02;32.30;;;19.27;;
24961;SDS011;12992;50.884;13.668;2022-08-20T07:04:28;30.75;;;19.15;;
24961;SDS011;12992;50.884;13.668;2022-08-20T07:06:54;30.40;;;19.30;;
24961;SDS011;12992;50.884;13.668;2022-08-20T07:09:21;28.73;;;19.02;;
24961;SDS011;12992;50.884;13.668;2022-08-20T07:11:47;35.72;;;20.58;;
24961;SDS011;12992;50.884;13.668;2022-08-20T07:14:14;34.47;;;20.35;;
24961;SDS011;12992;50.884;13.668;2022-08-20T07:16:40;35.72;;;20.75;;
24961;SDS011;12992;50.884;13.668;2022-08-20T07:19:05;29.48;;;18.90;;
24961;SDS011;12992;50.884;13.668;2022-08-20T07:21:32;30.15;;;19.27;;
24961;SDS011;12992;50.884;13.668;2022-08-20T07:23:57;32.85;;;18.65;;
24961;SDS011;12992;50.884;13.668;2022-08-20T07:26:23;30.17;;;18.30;;
24961;SDS011;12992;50.884;13.668;2022-08-20T07:28:48;28.48;;;19.05;;
24961;SDS011;12992;50.884;13.668;2022-08-20T07:31:14;29.52;;;19.77;;
24961;SDS011;12992;50.884;13.668;2022-08-20T07:33:58;31.02;;;19.73;;
24961;SDS011;12992;50.884;13.668;2022-08-20T07:36:23;29.60;;;20.08;;
24961;SDS011;12992;50.884;13.668;2022-08-20T07:38:49;29.00;;;18.95;;
24961;SDS011;12992;50.884;13.668;2022-08-20T07:41:16;27.60;;;17.63;;
24961;SDS011;12992;50.884;13.668;2022-08-20T07:43:44;25.75;;;16.52;;
24961;SDS011;12992;50.884;13.668;2022-08-20T07:46:10;26.83;;;17.02;;
24961;SDS011;12992;50.884;13.668;2022-08-20T07:48:38;24.17;;;15.95;;
24961;SDS011;12992;50.884;13.668;2022-08-20T07:51:10;23.40;;;16.15;;
24961;SDS011;12992;50.884;13.668;2022-08-20T07:53:36;26.50;;;17.02;;
24961;SDS011;12992;50.884;13.668;2022-08-20T07:56:03;24.08;;;15.52;;
24961;SDS011;12992;50.884;13.668;2022-08-20T07:58:32;26.15;;;16.73;;
24961;SDS011;12992;50.884;13.668;2022-08-20T08:00:59;21.70;;;15.38;;
24961;SDS011;12992;50.884;13.668;2022-08-20T08:03:25;21.60;;;14.75;;
24961;SDS011;12992;50.884;13.668;2022-08-20T08:05:52;22.20;;;15.32;;
24961;SDS011;12992;50.884;13.668;2022-08-20T08:08:20;23.15;;;14.82;;
24961;SDS011;12992;50.884;13.668;2022-08-20T08:10:48;26.90;;;16.70;;
24961;SDS011;12992;50.884;13.668;2022-08-20T08:13:25;23.08;;;15.20;;
24961;SDS011;12992;50.884;13.668;2022-08-20T08:15:57;21.73;;;14.85;;
24961;SDS011;12992;50.884;13.668;2022-08-20T08:18:27;23.48;;;15.23;;
24961;SDS011;12992;50.884;13.668;2022-08-20T08:21:02;22.90;;;14.75;;
24961;SDS011;12992;50.884;13.668;2022-08-20T08:23:30;20.73;;;14.40;;
24961;SDS011;12992;50.884;13.668;2022-08-20T08:25:55;22.83;;;13.95;;
24961;SDS011;12992;50.884;13.668;2022-08-20T08:28:21;20.80;;;14.18;;
24961;SDS011;12992;50.884;13.668;2022-08-20T08:30:47;22.30;;;15.18;;
24961;SDS011;12992;50.884;13.668;2022-08-20T08:33:25;22.13;;;14.90;;
24961;SDS011;12992;50.884;13.668;2022-08-20T08:35:55;20.92;;;14.93;;
24961;SDS011;12992;50.884;13.668;2022-08-20T08:38:22;19.77;;;14.57;;
24961;SDS011;12992;50.884;13.668;2022-08-20T08:40:50;20.48;;;14.88;;
24961;SDS011;12992;50.884;13.668;2022-08-20T08:43:21;20.83;;;14.90;;
24961;SDS011;12992;50.884;13.668;2022-08-20T08:45:59;20.55;;;14.88;;
24961;SDS011;12992;50.884;13.668;2022-08-20T08:48:39;21.60;;;15.07;;
24961;SDS011;12992;50.884;13.668;2022-08-20T08:51:08;23.35;;;15.93;;
24961;SDS011;12992;50.884;13.668;2022-08-20T08:53:39;26.00;;;16.95;;
24961;SDS011;12992;50.884;13.668;2022-08-20T08:56:10;21.77;;;16.83;;
24961;SDS011;12992;50.884;13.668;2022-08-20T08:58:38;23.95;;;16.65;;
24961;SDS011;12992;50.884;13.668;2022-08-20T09:01:11;20.45;;;15.38;;
24961;SDS011;12992;50.884;13.668;2022-08-20T09:03:40;27.25;;;16.60;;
24961;SDS011;12992;50.884;13.668;2022-08-20T09:06:11;22.27;;;15.40;;
24961;SDS011;12992;50.884;13.668;2022-08-20T09:08:42;21.88;;;15.88;;
24961;SDS011;12992;50.884;13.668;2022-08-20T09:11:11;18.10;;;13.23;;
24961;SDS011;12992;50.884;13.668;2022-08-20T09:13:38;18.13;;;13.73;;
24961;SDS011;12992;50.884;13.668;2022-08-20T09:16:03;17.95;;;13.27;;
24961;SDS011;12992;50.884;13.668;2022-08-20T09:18:29;17.88;;;12.93;;
24961;SDS011;12992;50.884;13.668;2022-08-20T09:20:54;16.85;;;12.38;;
24961;SDS011;12992;50.884;13.668;2022-08-20T09:23:19;19.38;;;11.57;;
24961;SDS011;12992;50.884;13.668;2022-08-20T09:25:45;15.00;;;11.52;;
24961;SDS011;12992;50.884;13.668;2022-08-20T09:28:10;21.05;;;13.10;;
24961;SDS011;12992;50.884;13.668;2022-08-20T09:30:35;17.08;;;13.77;;
24961;SDS011;12992;50.884;13.668;2022-08-20T09:33:01;18.15;;;12.85;;
24961;SDS011;12992;50.884;13.668;2022-08-20T09:35:27;22.08;;;14.48;;
24961;SDS011;12992;50.884;13.668;2022-08-20T09:37:53;19.55;;;13.18;;
24961;SDS011;12992;50.884;13.668;2022-08-20T09:40:19;19.85;;;14.77;;
24961;SDS011;12992;50.884;13.668;2022-08-20T09:42:44;20.05;;;14.48;;
24961;SDS011;12992;50.884;13.668;2022-08-20T09:45:10;20.40;;;13.57;;
24961;SDS011;12992;50.884;13.668;2022-08-20T09:47:37;24.30;;;15.60;;
24961;SDS011;12992;50.884;13.668;2022-08-20T09:50:03;22.85;;;16.27;;
24961;SDS011;12992;50.884;13.668;2022-08-20T09:52:33;22.85;;;15.95;;
24961;SDS011;12992;50.884;13.668;2022-08-20T09:55:04;25.80;;;17.27;;
24961;SDS011;12992;50.884;13.668;2022-08-20T09:57:38;28.17;;;18.13;;
24961;SDS011;12992;50.884;13.668;2022-08-20T10:00:05;25.75;;;17.50;;
24961;SDS011;12992;50.884;13.668;2022-08-20T10:02:37;27.63;;;18.55;;
24961;SDS011;12992;50.884;13.668;2022-08-20T10:05:02;30.33;;;19.75;;
24961;SDS011;12992;50.884;13.668;2022-08-20T10:07:28;30.65;;;19.60;;
24961;SDS011;12992;50.884;13.668;2022-08-20T10:09:53;35.40;;;21.35;;
24961;SDS011;12992;50.884;13.668;2022-08-20T10:12:19;33.35;;;21.50;;
24961;SDS011;12992;50.884;13.668;2022-08-20T10:14:44;33.30;;;21.85;;
24961;SDS011;12992;50.884;13.668;2022-08-20T10:17:09;37.95;;;22.38;;
24961;SDS011;12992;50.884;13.668;2022-08-20T10:19:35;37.72;;;23.13;;
24961;SDS011;12992;50.884;13.668;2022-08-20T10:22:00;37.83;;;23.08;;
24961;SDS011;12992;50.884;13.668;2022-08-20T10:24:26;37.50;;;23.38;;
24961;SDS011;12992;50.884;13.668;2022-08-20T10:26:59;36.75;;;22.92;;
24961;SDS011;12992;50.884;13.668;2022-08-20T10:29:26;39.80;;;24.80;;
24961;SDS011;12992;50.884;13.668;2022-08-20T10:31:52;45.30;;;25.38;;
24961;SDS011;12992;50.884;13.668;2022-08-20T10:34:19;42.65;;;26.00;;
24961;SDS011;12992;50.884;13.668;2022-08-20T10:36:45;45.10;;;26.80;;
24961;SDS011;12992;50.884;13.668;2022-08-20T10:39:11;45.83;;;27.77;;
24961;SDS011;12992;50.884;13.668;2022-08-20T10:41:37;51.20;;;30.05;;
24961;SDS011;12992;50.884;13.668;2022-08-20T10:44:02;54.00;;;30.00;;
24961;SDS011;12992;50.884;13.668;2022-08-20T10:46:28;54.97;;;30.73;;
24961;SDS011;12992;50.884;13.668;2022-08-20T10:48:54;56.80;;;31.23;;
24961;SDS011;12992;50.884;13.668;2022-08-20T10:51:19;62.83;;;32.58;;
24961;SDS011;12992;50.884;13.668;2022-08-20T10:53:44;62.35;;;33.17;;
24961;SDS011;12992;50.884;13.668;2022-08-20T10:56:10;59.35;;;32.25;;
24961;SDS011;12992;50.884;13.668;2022-08-20T10:58:35;61.45;;;34.10;;
24961;SDS011;12992;50.884;13.668;2022-08-20T11:01:00;58.97;;;33.20;;
24961;SDS011;12992;50.884;13.668;2022-08-20T11:03:26;58.88;;;32.70;;
24961;SDS011;12992;50.884;13.668;2022-08-20T11:05:51;65.65;;;34.17;;
24961;SDS011;12992;50.884;13.668;2022-08-20T11:08:16;67.28;;;34.55;;
24961;SDS011;12992;50.884;13.668;2022-08-20T11:10:41;63.10;;;34.42;;
24961;SDS011;12992;50.884;13.668;2022-08-20T11:13:07;65.45;;;35.90;;
24961;SDS011;12992;50.884;13.668;2022-08-20T11:15:34;65.38;;;35.65;;
24961;SDS011;12992;50.884;13.668;2022-08-20T11:18:01;63.60;;;34.75;;
24961;SDS011;12992;50.884;13.668;2022-08-20T11:20:27;62.58;;;36.38;;
24961;SDS011;12992;50.884;13.668;2022-08-20T11:22:53;66.78;;;36.92;;
24961;SDS011;12992;50.884;13.668;2022-08-20T11:25:18;65.03;;;37.65;;
24961;SDS011;12992;50.884;13.668;2022-08-20T11:27:45;67.57;;;37.00;;
24961;SDS011;12992;50.884;13.668;2022-08-20T11:30:18;70.88;;;37.95;;
24961;SDS011;12992;50.884;13.668;2022-08-20T11:32:45;62.20;;;34.50;;
24961;SDS011;12992;50.884;13.668;2022-08-20T11:35:11;65.10;;;36.58;;
24961;SDS011;12992;50.884;13.668;2022-08-20T11:37:37;57.67;;;34.47;;
24961;SDS011;12992;50.884;13.668;2022-08-20T11:40:03;60.80;;;33.92;;
24961;SDS011;12992;50.884;13.668;2022-08-20T11:42:29;58.08;;;33.42;;
24961;SDS011;12992;50.884;13.668;2022-08-20T11:44:54;59.42;;;34.70;;
24961;SDS011;12992;50.884;13.668;2022-08-20T11:47:21;61.50;;;34.53;;
24961;SDS011;12992;50.884;13.668;2022-08-20T11:49:55;58.45;;;34.40;;
24961;SDS011;12992;50.884;13.668;2022-08-20T11:52:25;55.80;;;33.60;;
24961;SDS011;12992;50.884;13.668;2022-08-20T11:54:51;57.80;;;34.65;;
24961;SDS011;12992;50.884;13.668;2022-08-20T11:57:20;65.70;;;34.75;;
24961;SDS011;12992;50.884;13.668;2022-08-20T11:59:50;53.95;;;33.88;;
24961;SDS011;12992;50.884;13.668;2022-08-20T12:02:17;53.60;;;32.88;;
24961;SDS011;12992;50.884;13.668;2022-08-20T12:04:42;52.85;;;33.47;;
24961;SDS011;12992;50.884;13.668;2022-08-20T12:07:09;52.03;;;32.13;;
24961;SDS011;12992;50.884;13.668;2022-08-20T12:09:39;52.97;;;31.85;;
24961;SDS011;12992;50.884;13.668;2022-08-20T12:12:05;48.40;;;31.20;;
24961;SDS011;12992;50.884;13.668;2022-08-20T12:14:31;49.72;;;32.67;;
24961;SDS011;12992;50.884;13.668;2022-08-20T12:16:56;50.35;;;32.13;;
24961;SDS011;12992;50.884;13.668;2022-08-20T12:19:21;52.10;;;32.00;;
24961;SDS011;12992;50.884;13.668;2022-08-20T12:21:47;49.05;;;29.75;;
24961;SDS011;12992;50.884;13.668;2022-08-20T12:24:12;49.13;;;31.85;;
24961;SDS011;12992;50.884;13.668;2022-08-20T12:26:37;52.88;;;31.42;;
24961;SDS011;12992;50.884;13.668;2022-08-20T12:29:02;51.80;;;31.70;;
24961;SDS011;12992;50.884;13.668;2022-08-20T12:31:28;52.05;;;32.05;;
24961;SDS011;12992;50.884;13.668;2022-08-20T12:33:53;55.15;;;33.33;;
24961;SDS011;12992;50.884;13.668;2022-08-20T12:36:19;52.83;;;32.22;;
24961;SDS011;12992;50.884;13.668;2022-08-20T12:38:44;58.05;;;34.17;;
24961;SDS011;12992;50.884;13.668;2022-08-20T12:41:09;58.10;;;32.40;;
24961;SDS011;12992;50.884;13.668;2022-08-20T12:43:35;55.15;;;32.28;;
24961;SDS011;12992;50.884;13.668;2022-08-20T12:46:00;56.22;;;31.27;;
24961;SDS011;12992;50.884;13.668;2022-08-20T12:48:25;51.08;;;30.98;;
24961;SDS011;12992;50.884;13.668;2022-08-20T12:50:51;51.42;;;31.65;;
24961;SDS011;12992;50.884;13.668;2022-08-20T12:53:16;50.88;;;30.48;;
24961;SDS011;12992;50.884;13.668;2022-08-20T12:55:42;50.85;;;29.33;;
24961;SDS011;12992;50.884;13.668;2022-08-20T12:58:07;51.33;;;30.70;;
24961;SDS011;12992;50.884;13.668;2022-08-20T13:00:36;51.25;;;29.38;;
24961;SDS011;12992;50.884;13.668;2022-08-20T13:03:09;51.88;;;31.85;;
24961;SDS011;12992;50.884;13.668;2022-08-20T13:05:36;50.08;;;29.02;;
24961;SDS011;12992;50.884;13.668;2022-08-20T13:08:06;48.83;;;30.08;;
24961;SDS011;12992;50.884;13.668;2022-08-20T13:10:34;49.00;;;28.80;;
24961;SDS011;12992;50.884;13.668;2022-08-20T13:13:01;42.53;;;26.95;;
24961;SDS011;12992;50.884;13.668;2022-08-20T13:15:28;42.53;;;27.35;;
24961;SDS011;12992;50.884;13.668;2022-08-20T13:17:56;45.63;;;27.02;;
24961;SDS011;12992;50.884;13.668;2022-08-20T13:20:23;46.72;;;27.92;;
24961;SDS011;12992;50.884;13.668;2022-08-20T13:22:51;40.42;;;26.00;;
24961;SDS011;12992;50.884;13.668;2022-08-20T13:25:19;39.50;;;25.75;;
24961;SDS011;12992;50.884;13.668;2022-08-20T13:27:45;39.90;;;24.88;;
24961;SDS011;12992;50.884;13.668;2022-08-20T13:30:12;37.83;;;24.50;;
24961;SDS011;12992;50.884;13.668;2022-08-20T13:32:40;39.72;;;24.55;;
24961;SDS011;12992;50.884;13.668;2022-08-20T13:35:05;40.95;;;24.63;;
24961;SDS011;12992;50.884;13.668;2022-08-20T13:37:31;39.03;;;24.90;;
24961;SDS011;12992;50.884;13.668;2022-08-20T13:39:57;34.17;;;24.60;;
24961;SDS011;12992;50.884;13.668;2022-08-20T13:42:23;39.50;;;24.25;;
24961;SDS011;12992;50.884;13.668;2022-08-20T13:44:50;39.53;;;24.38;;
24961;SDS011;12992;50.884;13.668;2022-08-20T13:47:19;36.33;;;23.67;;
24961;SDS011;12992;50.884;13.668;2022-08-20T13:49:47;36.22;;;23.80;;
24961;SDS011;12992;50.884;13.668;2022-08-20T13:52:18;38.83;;;23.40;;
24961;SDS011;12992;50.884;13.668;2022-08-20T13:54:43;36.38;;;24.05;;
24961;SDS011;12992;50.884;13.668;2022-08-20T13:57:09;40.22;;;23.45;;
24961;SDS011;12992;50.884;13.668;2022-08-20T13:59:38;34.08;;;21.52;;
24961;SDS011;12992;50.884;13.668;2022-08-20T14:02:08;32.25;;;21.70;;
24961;SDS011;12992;50.884;13.668;2022-08-20T14:04:34;35.38;;;21.80;;
24961;SDS011;12992;50.884;13.668;2022-08-20T14:07:20;33.80;;;22.35;;
24961;SDS011;12992;50.884;13.668;2022-08-20T14:09:52;34.15;;;22.83;;
24961;SDS011;12992;50.884;13.668;2022-08-20T14:12:20;35.25;;;22.38;;
24961;SDS011;12992;50.884;13.668;2022-08-20T14:14:47;35.40;;;22.80;;